Time;durP1;ratioP1;P1;durP2;ratioP2;P2;SDS_P1;SDS_P2;PMS_P1;PMS_P2;Temp;Humidity;BMP_temperature;BMP_pressure;BME280_temperature;BME280_humidity;BME280_pressure;Samples;Min_cycle;Max_cycle;Signal;HPM_P1;HPM_P2
2022/02/08 00:00:14;;;;;;;;;;;;;;;4.48;91.81;102337.72;2568644;30;137373;-40
2022/02/08 00:02:42;;;;;;;;;;;;;;;4.43;91.34;102340.81;2570698;30;138239;-40
2022/02/08 00:05:13;;;;;;;;;;;;;;;4.44;91.27;102342.53;2570036;30;137016;-40
2022/02/08 00:07:45;;;;;;;;;;;;;;;4.47;92.32;102339.56;2567980;30;137671;-40
2022/02/08 00:10:13;;;;;;;;;;;;;;;4.53;91.74;102343.56;2569131;30;137997;-40
2022/02/08 00:12:41;;;;;;;;;;;;;;;4.52;92.22;102344.56;2566658;30;139728;-40
2022/02/08 00:15:09;;;;;;;;;;;;;;;4.54;91.79;102341.75;2569201;30;136782;-40
2022/02/08 00:17:37;;;;;;;;;;;;;;;4.56;92.72;102345.16;2571333;30;138106;-40
2022/02/08 00:20:07;;;;;;;;;;;;;;;4.61;92.48;102343.75;2572215;30;136835;-40
2022/02/08 00:22:35;;;;;;;;;;;;;;;4.67;92.21;102336.94;2570204;30;138475;-40
2022/02/08 00:25:03;;;;;;;;;;;;;;;4.62;92.54;102325.69;2569215;30;136757;-40
2022/02/08 00:27:31;;;;;;;;;;;;;;;4.63;93.29;102327.41;2568938;30;137698;-40
2022/02/08 00:29:59;;;;;;;;;;;;;;;4.63;94.05;102322.00;2570610;30;137035;-40
2022/02/08 00:32:27;;;;;;;;;;;;;;;4.70;93.53;102317.75;2569974;30;137580;-40
2022/02/08 00:34:55;;;;;;;;;;;;;;;4.70;94.10;102325.00;2571002;30;137050;-40
2022/02/08 00:37:23;;;;;;;;;;;;;;;4.74;94.27;102316.47;2570756;30;138300;-40
2022/02/08 00:39:51;;;;;;;;;;;;;;;4.77;94.48;102312.66;2567783;30;138750;-40
2022/02/08 00:42:22;;;;;;;;;;;;;;;4.73;95.47;102314.75;2570061;30;138560;-40
2022/02/08 00:45:02;;;;;;;;;;;;;;;4.77;95.88;102319.88;2572464;30;137183;-40
2022/02/08 00:47:38;;;;;;;;;;;;;;;4.81;96.44;102314.06;2569152;30;138402;-40
2022/02/08 00:50:08;;;;;;;;;;;;;;;4.85;96.99;102317.38;2571194;30;136751;-40
2022/02/08 00:52:37;;;;;;;;;;;;;;;4.85;96.16;102311.97;2570013;30;140585;-40
2022/02/08 00:55:08;;;;;;;;;;;;;;;4.84;96.93;102321.06;2568743;30;137205;-40
2022/02/08 00:57:36;;;;;;;;;;;;;;;4.85;96.22;102320.06;2570503;30;140591;-41
2022/02/08 01:00:05;;;;;;;;;;;;;;;4.84;97.82;102316.50;2570265;30;137635;-40
2022/02/08 01:02:34;;;;;;;;;;;;;;;4.87;97.79;102318.09;2569752;30;138161;-40
2022/02/08 01:05:05;;;;;;;;;;;;;;;4.86;98.46;102319.09;2569398;30;138597;-40
2022/02/08 01:07:33;;;;;;;;;;;;;;;4.83;98.94;102320.19;2570157;30;139684;-40
2022/02/08 01:10:02;;;;;;;;;;;;;;;4.84;100.00;102323.78;2572833;30;136769;-40
2022/02/08 01:12:32;;;;;;;;;;;;;;;4.89;100.00;102319.63;2570383;30;137354;-40
2022/02/08 01:15:00;;;;;;;;;;;;;;;4.84;100.00;102326.47;2569129;30;137105;-40
2022/02/08 01:17:29;;;;;;;;;;;;;;;4.83;100.00;102324.78;2569185;30;139127;-42
2022/02/08 01:20:08;;;;;;;;;;;;;;;4.89;100.00;102329.63;2569633;30;136963;-40
2022/02/08 01:22:40;;;;;;;;;;;;;;;4.85;100.00;102318.22;2570138;30;140569;-40
2022/02/08 01:25:14;;;;;;;;;;;;;;;4.81;100.00;102310.53;2570227;30;137092;-40
2022/02/08 01:27:49;;;;;;;;;;;;;;;4.74;100.00;102319.16;2570634;30;137178;-40
2022/02/08 01:31:06;;;;;;;;;;;;;;;4.71;100.00;102318.59;2569451;30;136704;-40
2022/02/08 01:38:19;;;;;;;;;;;;;;;4.63;100.00;102321.13;2568772;30;138331;-40
2022/02/08 01:41:10;;;;;;;;;;;;;;;4.56;100.00;102318.97;2567862;30;137099;-40
2022/02/08 01:46:46;;;;;;;;;;;;;;;4.53;100.00;102321.94;2565934;30;137359;-40
2022/02/08 01:49:30;;;;;;;;;;;;;;;4.49;100.00;102319.63;2565927;30;140924;-39
2022/02/08 01:52:02;;;;;;;;;;;;;;;4.54;100.00;102303.91;2566959;30;138632;-39
2022/02/08 01:54:30;;;;;;;;;;;;;;;4.49;100.00;102317.81;2568602;30;139705;-39
2022/02/08 01:56:58;;;;;;;;;;;;;;;4.50;100.00;102315.94;2567786;30;138730;-40
2022/02/08 01:59:26;;;;;;;;;;;;;;;4.44;100.00;102311.97;2568293;30;138750;-40
2022/02/08 02:01:54;;;;;;;;;;;;;;;4.42;100.00;102314.78;2568058;30;139507;-39
2022/02/08 02:04:22;;;;;;;;;;;;;;;4.39;100.00;102300.72;2568415;30;137872;-40
2022/02/08 02:06:51;;;;;;;;;;;;;;;4.41;100.00;102309.53;2567289;30;139199;-40
2022/02/08 02:09:26;;;;;;;;;;;;;;;4.39;100.00;102314.22;2568279;30;138255;-39
2022/02/08 02:11:57;;;;;;;;;;;;;;;4.34;100.00;102309.22;2569027;30;136713;-40
2022/02/08 02:14:25;;;;;;;;;;;;;;;4.36;100.00;102301.81;2568340;30;138818;-40
2022/02/08 02:16:57;;;;;;;;;;;;;;;4.41;100.00;102296.84;2567757;30;139579;-40
2022/02/08 02:19:28;;;;;;;;;;;;;;;4.37;100.00;102289.16;2568035;30;139695;-40
2022/02/08 02:21:57;;;;;;;;;;;;;;;4.40;100.00;102280.78;2565709;30;138802;-40
2022/02/08 02:24:25;;;;;;;;;;;;;;;4.35;100.00;102285.72;2567579;30;140245;-40
2022/02/08 02:26:59;;;;;;;;;;;;;;;4.41;100.00;102279.81;2566801;30;138052;-40
2022/02/08 02:29:29;;;;;;;;;;;;;;;4.43;100.00;102284.06;2568376;30;139926;-40
2022/02/08 02:31:59;;;;;;;;;;;;;;;4.42;100.00;102276.94;2567182;30;139329;-40
2022/02/08 02:34:28;;;;;;;;;;;;;;;4.40;100.00;102273.53;2568097;30;140769;-40
2022/02/08 02:36:58;;;;;;;;;;;;;;;4.42;100.00;102273.41;2568457;30;137625;-40
2022/02/08 02:39:28;;;;;;;;;;;;;;;4.50;100.00;102264.59;2566855;30;138413;-40
2022/02/08 02:41:58;;;;;;;;;;;;;;;4.43;100.00;102267.84;2567165;30;136714;-40
2022/02/08 02:44:26;;;;;;;;;;;;;;;4.45;100.00;102265.84;2567209;30;140430;-40
2022/02/08 02:46:55;;;;;;;;;;;;;;;4.43;100.00;102262.44;2566636;30;140041;-39
2022/02/08 02:49:27;;;;;;;;;;;;;;;4.45;100.00;102259.63;2565749;30;139043;-40
2022/02/08 02:52:01;;;;;;;;;;;;;;;4.50;100.00;102265.47;2567348;30;139309;-40
2022/02/08 02:54:29;;;;;;;;;;;;;;;4.53;100.00;102262.47;2568060;30;139677;-39
2022/02/08 02:57:00;;;;;;;;;;;;;;;4.54;100.00;102266.06;2568153;30;136749;-40
2022/02/08 02:59:32;;;;;;;;;;;;;;;4.59;100.00;102266.50;2568479;30;139712;-40
2022/02/08 03:20:48;;;;;;;;;;;;;;;4.81;100.00;102262.69;2567791;30;138458;-40
2022/02/08 03:23:19;;;;;;;;;;;;;;;4.87;100.00;102264.00;2566167;30;138532;-39
2022/02/08 03:25:52;;;;;;;;;;;;;;;4.91;100.00;102265.41;2567628;30;140020;-40
2022/02/08 03:28:24;;;;;;;;;;;;;;;4.93;100.00;102265.28;2568531;30;138342;-40
2022/02/08 03:30:52;;;;;;;;;;;;;;;4.93;100.00;102262.59;2567386;30;139947;-40
2022/02/08 03:33:23;;;;;;;;;;;;;;;4.96;100.00;102267.72;2567453;30;137643;-40
2022/02/08 03:35:53;;;;;;;;;;;;;;;4.98;100.00;102263.88;2566684;30;140564;-40
2022/02/08 03:38:32;;;;;;;;;;;;;;;5.04;100.00;102260.63;2567484;30;136832;-40
2022/02/08 03:41:06;;;;;;;;;;;;;;;5.04;100.00;102260.63;2566982;30;138143;-39
2022/02/08 03:43:36;;;;;;;;;;;;;;;5.07;100.00;102264.88;2566804;30;137583;-40
2022/02/08 03:46:12;;;;;;;;;;;;;;;5.09;100.00;102256.63;2566905;30;139496;-40
2022/02/08 03:48:43;;;;;;;;;;;;;;;5.09;100.00;102259.34;2567593;30;139388;-40
2022/02/08 03:51:14;;;;;;;;;;;;;;;5.10;100.00;102270.00;2567196;30;140521;-40
2022/02/08 03:53:51;;;;;;;;;;;;;;;5.20;100.00;102263.75;2567129;30;139576;-39
2022/02/08 03:56:26;;;;;;;;;;;;;;;5.18;100.00;102267.47;2567887;30;138464;-40
2022/02/08 03:59:00;;;;;;;;;;;;;;;5.20;100.00;102280.00;2568472;30;138156;-40
2022/02/08 04:04:26;;;;;;;;;;;;;;;5.25;100.00;102269.59;2569482;30;136889;-40
2022/02/08 04:06:55;;;;;;;;;;;;;;;5.24;100.00;102276.84;2570033;30;137040;-40
2022/02/08 04:09:23;;;;;;;;;;;;;;;5.27;100.00;102275.72;2568240;30;136812;-40
2022/02/08 04:12:01;;;;;;;;;;;;;;;5.23;100.00;102275.13;2567818;30;137060;-40
2022/02/08 04:17:03;;;;;;;;;;;;;;;5.28;100.00;102263.91;2567680;30;137165;-40
2022/02/08 04:19:44;;;;;;;;;;;;;;;5.29;100.00;102261.03;2565985;30;137115;-39
2022/02/08 04:36:14;;;;;;;;;;;;;;;5.45;100.00;102276.72;2568540;30;137058;-40
2022/02/08 04:41:16;;;;;;;;;;;;;;;5.49;100.00;102273.72;2568135;30;138534;-40
2022/02/08 04:43:57;;;;;;;;;;;;;;;5.47;100.00;102276.56;2567225;30;137587;-40
2022/02/08 04:46:41;;;;;;;;;;;;;;;5.55;100.00;102273.16;2568377;30;136673;-40
2022/02/08 04:49:09;;;;;;;;;;;;;;;5.55;100.00;102284.81;2567959;30;137150;-39
2022/02/08 04:51:42;;;;;;;;;;;;;;;5.60;100.00;102292.53;2565329;30;136942;-40
2022/02/08 04:57:26;;;;;;;;;;;;;;;5.61;100.00;102283.41;2569385;30;136888;-40
2022/02/08 05:41:37;;;;;;;;;;;;;;;5.69;100.00;102282.69;2568487;30;136744;-40
2022/02/08 05:48:46;;;;;;;;;;;;;;;5.78;100.00;102284.50;2568116;30;137897;-40
2022/02/08 05:51:20;;;;;;;;;;;;;;;5.79;100.00;102282.69;2567383;30;137331;-40
2022/02/08 05:53:48;;;;;;;;;;;;;;;5.80;100.00;102287.94;2569050;30;136997;-39
2022/02/08 05:56:19;;;;;;;;;;;;;;;5.83;100.00;102287.63;2566890;30;137370;-40
2022/02/08 05:58:48;;;;;;;;;;;;;;;5.82;100.00;102285.09;2567920;30;137725;-39
2022/02/08 06:01:15;;;;;;;;;;;;;;;5.81;100.00;102289.63;2569215;30;136717;-40
2022/02/08 06:04:00;;;;;;;;;;;;;;;5.80;100.00;102284.38;2565634;30;139603;-40
2022/02/08 06:06:31;;;;;;;;;;;;;;;5.80;100.00;102281.69;2568137;30;138119;-40
2022/02/08 06:08:58;;;;;;;;;;;;;;;5.74;100.00;102272.25;2568741;30;138351;-40
2022/02/08 06:11:27;;;;;;;;;;;;;;;5.73;100.00;102275.97;2566428;30;137340;-40
2022/02/08 06:13:58;;;;;;;;;;;;;;;5.73;100.00;102259.72;2567894;30;138158;-40
2022/02/08 06:16:30;;;;;;;;;;;;;;;5.73;100.00;102268.72;2567941;30;138634;-40
2022/02/08 06:18:58;;;;;;;;;;;;;;;5.74;100.00;102265.00;2568247;30;138322;-39
2022/02/08 06:21:26;;;;;;;;;;;;;;;5.76;100.00;102275.69;2569070;30;138122;-40
2022/02/08 06:23:54;;;;;;;;;;;;;;;5.76;100.00;102272.97;2567025;30;138456;-39
2022/02/08 06:26:23;;;;;;;;;;;;;;;5.77;100.00;102271.97;2568075;30;136688;-40
2022/02/08 06:29:04;;;;;;;;;;;;;;;5.73;100.00;102268.72;2567613;30;138570;-40
2022/02/08 06:31:32;;;;;;;;;;;;;;;5.70;100.00;102269.03;2567854;30;136970;-40
2022/02/08 06:34:00;;;;;;;;;;;;;;;5.71;100.00;102275.28;2568459;30;138333;-40
2022/02/08 06:36:28;;;;;;;;;;;;;;;5.66;100.00;102274.84;2568632;30;137451;-40
2022/02/08 06:38:56;;;;;;;;;;;;;;;5.71;100.00;102272.56;2567469;30;137846;-40
2022/02/08 06:41:24;;;;;;;;;;;;;;;5.74;100.00;102273.13;2568585;30;137237;-40
2022/02/08 06:43:52;;;;;;;;;;;;;;;5.76;100.00;102265.72;2565873;30;138508;-40
2022/02/08 06:46:20;;;;;;;;;;;;;;;5.75;100.00;102279.41;2571458;30;137486;-40
2022/02/08 06:48:47;;;;;;;;;;;;;;;5.77;100.00;102277.38;2568588;30;138927;-40
2022/02/08 06:51:16;;;;;;;;;;;;;;;5.80;100.00;102277.09;2568176;30;137103;-40
2022/02/08 06:53:44;;;;;;;;;;;;;;;5.80;100.00;102279.81;2568638;30;139078;-40
2022/02/08 06:56:11;;;;;;;;;;;;;;;5.80;100.00;102282.50;2566900;30;137615;-39
2022/02/08 06:58:52;;;;;;;;;;;;;;;5.88;100.00;102290.78;2567476;30;137564;-40
2022/02/08 07:01:26;;;;;;;;;;;;;;;5.87;100.00;102286.38;2568018;30;137053;-39
2022/02/08 07:03:53;;;;;;;;;;;;;;;5.90;100.00;102285.22;2568795;30;137341;-40
2022/02/08 07:06:23;;;;;;;;;;;;;;;5.89;100.00;102295.22;2567178;30;137079;-40
2022/02/08 07:08:51;;;;;;;;;;;;;;;5.90;100.00;102302.34;2567981;30;138517;-39
2022/02/08 07:11:19;;;;;;;;;;;;;;;5.94;100.00;102296.63;2567819;30;136859;-40
2022/02/08 07:13:48;;;;;;;;;;;;;;;5.98;100.00;102289.91;2567876;30;138517;-40
2022/02/08 07:16:17;;;;;;;;;;;;;;;5.97;100.00;102297.19;2568042;30;139088;-40
2022/02/08 07:18:45;;;;;;;;;;;;;;;5.98;100.00;102290.78;2567843;30;138429;-40
2022/02/08 07:21:13;;;;;;;;;;;;;;;6.00;100.00;102294.19;2568567;30;137045;-39
2022/02/08 07:23:41;;;;;;;;;;;;;;;6.02;100.00;102303.06;2568371;30;137834;-40
2022/02/08 07:26:08;;;;;;;;;;;;;;;6.08;100.00;102300.75;2568051;30;137347;-40
2022/02/08 07:28:42;;;;;;;;;;;;;;;6.09;100.00;102305.19;2569182;30;138345;-40
2022/02/08 07:31:17;;;;;;;;;;;;;;;6.12;100.00;102302.16;2566821;30;137485;-40
2022/02/08 07:34:17;;;;;;;;;;;;;;;6.16;100.00;102307.16;2568441;30;138627;-40
2022/02/08 07:36:43;;;;;;;;;;;;;;;6.18;100.00;102307.00;2569583;30;138057;-38
2022/02/08 07:39:22;;;;;;;;;;;;;;;6.14;100.00;102300.16;2571059;30;138187;-40
2022/02/08 07:41:50;;;;;;;;;;;;;;;6.25;100.00;102302.72;2568859;30;136908;-40
2022/02/08 07:44:17;;;;;;;;;;;;;;;6.27;100.00;102299.84;2570033;30;139003;-40
2022/02/08 07:47:03;;;;;;;;;;;;;;;6.30;100.00;102313.97;2570465;30;137755;-40
2022/02/08 07:49:37;;;;;;;;;;;;;;;6.38;100.00;102312.34;2572273;30;138938;-40
2022/02/08 07:52:06;;;;;;;;;;;;;;;6.39;100.00;102306.81;2571359;30;137621;-40
2022/02/08 07:54:34;;;;;;;;;;;;;;;6.41;100.00;102307.50;2569990;30;139162;-40
2022/02/08 07:57:02;;;;;;;;;;;;;;;6.43;100.00;102305.50;2570194;30;136995;-41
2022/02/08 07:59:29;;;;;;;;;;;;;;;6.46;100.00;102305.19;2567901;30;137479;-40
2022/02/08 08:01:57;;;;;;;;;;;;;;;6.51;100.00;102306.59;2569430;30;136678;-40
2022/02/08 08:04:27;;;;;;;;;;;;;;;6.53;100.00;102310.03;2568446;30;140671;-40
2022/02/08 08:06:55;;;;;;;;;;;;;;;6.57;100.00;102303.28;2571242;30;136926;-40
2022/02/08 08:09:23;;;;;;;;;;;;;;;6.60;100.00;102297.56;2570173;30;137370;-40
2022/02/08 08:11:52;;;;;;;;;;;;;;;6.62;100.00;102303.69;2569869;30;137306;-40
2022/02/08 08:14:23;;;;;;;;;;;;;;;6.65;100.00;102306.13;2569881;30;138404;-40
2022/02/08 08:17:00;;;;;;;;;;;;;;;6.73;100.00;102298.09;2569216;30;136997;-40
2022/02/08 08:19:37;;;;;;;;;;;;;;;6.78;100.00;102294.06;2570270;30;138156;-40
2022/02/08 08:22:06;;;;;;;;;;;;;;;6.83;100.00;102300.75;2569646;30;137030;-40
2022/02/08 08:24:35;;;;;;;;;;;;;;;6.87;100.00;102301.28;2569099;30;138472;-40
2022/02/08 08:27:03;;;;;;;;;;;;;;;6.92;100.00;102296.28;2569234;30;138858;-40
2022/02/08 08:29:31;;;;;;;;;;;;;;;6.96;100.00;102294.09;2568768;30;137980;-40
2022/02/08 08:31:59;;;;;;;;;;;;;;;6.97;100.00;102290.38;2570262;30;137323;-40
2022/02/08 08:34:27;;;;;;;;;;;;;;;7.00;100.00;102293.63;2569856;30;138023;-40
2022/02/08 08:36:56;;;;;;;;;;;;;;;7.04;100.00;102297.75;2570850;30;137176;-40
2022/02/08 08:39:37;;;;;;;;;;;;;;;7.13;100.00;102293.28;2565519;30;137527;-40
2022/02/08 08:48:26;;;;;;;;;;;;;;;7.18;100.00;102292.81;2570673;30;137800;-40
2022/02/08 08:50:56;;;;;;;;;;;;;;;7.27;100.00;102302.75;2568696;30;138449;-40
2022/02/08 08:53:25;;;;;;;;;;;;;;;7.33;100.00;102296.69;2568809;30;137553;-40
2022/02/08 08:55:55;;;;;;;;;;;;;;;7.35;100.00;102310.13;2568426;30;139358;-40
2022/02/08 08:58:22;;;;;;;;;;;;;;;7.39;100.00;102305.22;2571607;30;137066;-40
2022/02/08 09:00:50;;;;;;;;;;;;;;;7.40;100.00;102309.63;2569705;30;138338;-40
2022/02/08 09:03:18;;;;;;;;;;;;;;;7.47;100.00;102308.03;2569697;30;137726;-40
2022/02/08 09:05:46;;;;;;;;;;;;;;;7.52;100.00;102313.84;2569282;30;139293;-40
2022/02/08 09:08:14;;;;;;;;;;;;;;;7.57;100.00;102310.66;2569762;30;137114;-40
2022/02/08 09:10:52;;;;;;;;;;;;;;;7.61;100.00;102310.19;2567652;30;138275;-41
2022/02/08 09:13:28;;;;;;;;;;;;;;;7.62;100.00;102309.16;2569565;30;137342;-40
2022/02/08 09:16:09;;;;;;;;;;;;;;;7.70;100.00;102318.41;2569578;30;138603;-40
2022/02/08 09:24:10;;;;;;;;;;;;;;;7.84;100.00;102326.00;2569713;30;136977;-40
2022/02/08 09:29:34;;;;;;;;;;;;;;;7.92;100.00;102325.22;2569065;30;137200;-40
2022/02/08 09:32:12;;;;;;;;;;;;;;;8.01;100.00;102328.84;2568002;30;139124;-40
2022/02/08 09:34:43;;;;;;;;;;;;;;;8.05;100.00;102332.94;2569381;30;137168;-41
2022/02/08 09:37:12;;;;;;;;;;;;;;;8.12;100.00;102342.16;2569166;30;138283;-41
2022/02/08 09:39:41;;;;;;;;;;;;;;;8.16;100.00;102346.28;2570527;30;137458;-40
2022/02/08 09:42:09;;;;;;;;;;;;;;;8.18;100.00;102346.97;2569244;30;137626;-40
2022/02/08 09:44:38;;;;;;;;;;;;;;;8.18;100.00;102338.81;2570231;30;137185;-40
2022/02/08 09:47:08;;;;;;;;;;;;;;;8.23;100.00;102346.50;2568220;30;138461;-40
2022/02/08 09:49:44;;;;;;;;;;;;;;;8.29;100.00;102350.44;2569017;30;136661;-40
2022/02/08 09:52:12;;;;;;;;;;;;;;;8.32;100.00;102350.97;2568970;30;139401;-40
2022/02/08 09:54:40;;;;;;;;;;;;;;;8.34;100.00;102359.81;2568323;30;138505;-40
2022/02/08 09:57:08;;;;;;;;;;;;;;;8.37;100.00;102357.81;2569582;30;137298;-40
2022/02/08 09:59:37;;;;;;;;;;;;;;;8.39;100.00;102362.06;2571398;30;138157;-40
2022/02/08 10:02:05;;;;;;;;;;;;;;;8.40;100.00;102349.31;2571421;30;138382;-40
2022/02/08 10:04:32;;;;;;;;;;;;;;;8.44;100.00;102348.81;2569855;30;137364;-40
2022/02/08 10:07:13;;;;;;;;;;;;;;;8.43;100.00;102352.56;2569655;30;138266;-40
2022/02/08 10:09:42;;;;;;;;;;;;;;;8.43;100.00;102354.44;2569212;30;137187;-41
2022/02/08 10:12:10;;;;;;;;;;;;;;;8.48;100.00;102352.94;2567616;30;139174;-40
2022/02/08 10:14:54;;;;;;;;;;;;;;;8.50;100.00;102363.69;2569710;30;137752;-40
2022/02/08 10:22:43;;;;;;;;;;;;;;;8.54;100.00;102356.91;2566347;30;138253;-41
2022/02/08 10:25:21;;;;;;;;;;;;;;;8.58;100.00;102366.44;2570506;30;137592;-41
2022/02/08 10:28:16;;;;;;;;;;;;;;;8.57;100.00;102356.59;2571071;30;138336;-40
2022/02/08 10:38:52;;;;;;;;;;;;;;;8.67;100.00;102348.31;2569370;30;138462;-40
2022/02/08 10:41:21;;;;;;;;;;;;;;;8.69;100.00;102349.00;2565288;30;137645;-40
2022/02/08 10:44:05;;;;;;;;;;;;;;;8.72;100.00;102340.50;2570991;30;137169;-40
2022/02/08 10:46:34;;;;;;;;;;;;;;;8.76;100.00;102336.47;2569205;30;137557;-41
2022/02/08 10:49:03;;;;;;;;;;;;;;;8.80;100.00;102341.56;2569211;30;136641;-40
2022/02/08 10:51:36;;;;;;;;;;;;;;;8.82;100.00;102344.97;2569882;30;137461;-40
2022/02/08 10:54:09;;;;;;;;;;;;;;;8.80;100.00;102347.03;2567437;30;138248;-40
2022/02/08 10:56:39;;;;;;;;;;;;;;;8.83;100.00;102349.41;2568091;30;136817;-41
2022/02/08 10:59:17;;;;;;;;;;;;;;;8.88;100.00;102344.31;2569127;30;137786;-40
2022/02/08 11:01:57;;;;;;;;;;;;;;;8.92;100.00;102335.69;2569676;30;137736;-40
2022/02/08 11:04:42;;;;;;;;;;;;;;;8.96;100.00;102333.44;2568715;30;138414;-40
2022/02/08 11:07:28;;;;;;;;;;;;;;;9.00;100.00;102337.53;2570089;30;137103;-40
2022/02/08 11:15:40;;;;;;;;;;;;;;;9.17;100.00;102340.34;2568755;30;137164;-40
2022/02/08 11:19:04;;;;;;;;;;;;;;;9.23;100.00;102341.53;2571157;30;137810;-40
2022/02/08 11:24:01;;;;;;;;;;;;;;;9.28;100.00;102326.41;2569341;30;137813;-40
2022/02/08 11:26:31;;;;;;;;;;;;;;;9.30;100.00;102331.69;2568017;30;137810;-41
2022/02/08 11:29:15;;;;;;;;;;;;;;;9.34;100.00;102325.75;2569840;30;137112;-38
2022/02/08 11:31:50;;;;;;;;;;;;;;;9.35;100.00;102323.84;2570103;30;138403;-40
2022/02/08 11:45:55;;;;;;;;;;;;;;;9.55;99.26;102316.25;2569914;30;137484;-40
2022/02/08 11:54:05;;;;;;;;;;;;;;;9.60;98.77;102310.25;2572359;30;139092;-40
2022/02/08 12:05:13;;;;;;;;;;;;;;;9.60;95.59;102322.03;2568999;30;138295;-40
2022/02/08 12:07:49;;;;;;;;;;;;;;;9.61;95.59;102322.88;2569244;30;136974;-40
2022/02/08 12:13:09;;;;;;;;;;;;;;;9.63;96.60;102320.81;2569871;30;138916;-40
2022/02/08 13:02:17;;;;;;;;;;;;;;;9.95;96.60;102313.69;2569814;30;137393;-41
2022/02/08 14:03:13;;;;;;;;;;;;;;;10.13;91.18;102288.06;2566626;30;137368;-40
2022/02/08 14:05:57;;;;;;;;;;;;;;;10.13;89.84;102288.06;2568540;30;139002;-40
2022/02/08 14:11:23;;;;;;;;;;;;;;;10.16;90.61;102290.44;2568488;30;138440;-40
2022/02/08 14:14:16;;;;;;;;;;;;;;;10.11;90.37;102292.84;2568719;30;137782;-40
2022/02/08 14:30:19;;;;;;;;;;;;;;;9.87;90.78;102308.22;2568086;30;137042;-40
2022/02/08 14:33:00;;;;;;;;;;;;;;;9.76;90.39;102310.28;2568798;30;140718;-40
2022/02/08 15:13:05;;;;;;;;;;;;;;;9.69;91.93;102317.44;2566574;30;138263;-41
2022/02/08 15:16:06;;;;;;;;;;;;;;;9.73;93.46;102315.19;2569095;30;138330;-40
2022/02/08 15:18:34;;;;;;;;;;;;;;;9.73;92.32;102320.66;2568303;30;137065;-40
2022/02/08 15:21:04;;;;;;;;;;;;;;;9.74;92.46;102322.34;2565252;30;139272;-40
2022/02/08 15:23:35;;;;;;;;;;;;;;;9.74;92.55;102322.34;2568617;30;137590;-40
2022/02/08 15:26:04;;;;;;;;;;;;;;;9.74;93.08;102322.34;2567835;30;138799;-40
2022/02/08 15:28:32;;;;;;;;;;;;;;;9.73;93.04;102309.75;2567123;30;137382;-40
2022/02/08 15:30:59;;;;;;;;;;;;;;;9.73;93.31;102312.47;2567192;30;137804;-41
2022/02/08 15:33:28;;;;;;;;;;;;;;;9.80;92.92;102313.50;2569156;30;137210;-40
2022/02/08 15:35:56;;;;;;;;;;;;;;;9.81;92.46;102317.91;2568431;30;137920;-40
2022/02/08 15:38:30;;;;;;;;;;;;;;;9.82;93.59;102319.66;2568346;30;136727;-40
2022/02/08 15:40:59;;;;;;;;;;;;;;;9.75;93.56;102318.59;2568096;30;138479;-40
2022/02/08 15:43:27;;;;;;;;;;;;;;;9.77;93.13;102324.75;2568265;30;136985;-40
2022/02/08 15:46:18;;;;;;;;;;;;;;;9.74;93.42;102325.09;2567726;30;138239;-40
2022/02/08 15:48:48;;;;;;;;;;;;;;;9.73;94.06;102328.81;2568845;30;137134;-40
2022/02/08 15:53:57;;;;;;;;;;;;;;;9.67;94.08;102324.91;2569540;30;137252;-41
2022/02/08 16:10:01;;;;;;;;;;;;;;;9.49;96.00;102331.38;2569094;30;138187;-40
2022/02/08 16:15:17;;;;;;;;;;;;;;;9.41;96.99;102316.88;2567635;30;137100;-40
2022/02/08 16:26:02;;;;;;;;;;;;;;;9.26;99.09;102324.88;2568405;30;137313;-40
2022/02/08 16:56:08;;;;;;;;;;;;;;;8.94;100.00;102349.09;2569167;30;136861;-40
2022/02/08 16:58:42;;;;;;;;;;;;;;;8.96;100.00;102344.34;2568794;30;136701;-40
2022/02/08 17:01:14;;;;;;;;;;;;;;;8.98;100.00;102349.63;2568981;30;137008;-40
2022/02/08 17:03:46;;;;;;;;;;;;;;;8.98;100.00;102361.38;2568844;30;137941;-40
2022/02/08 17:06:17;;;;;;;;;;;;;;;8.92;100.00;102354.72;2568280;30;138346;-41
2022/02/08 17:08:46;;;;;;;;;;;;;;;8.84;100.00;102353.84;2568455;30;137002;-40
2022/02/08 17:11:22;;;;;;;;;;;;;;;8.80;100.00;102353.28;2567024;30;138252;-40
2022/02/08 17:14:16;;;;;;;;;;;;;;;8.78;100.00;102349.88;2568577;30;137963;-40
2022/02/08 17:46:59;;;;;;;;;;;;;;;8.64;100.00;102381.28;2566246;30;137156;-40
2022/02/08 17:49:27;;;;;;;;;;;;;;;8.59;100.00;102380.91;2569585;30;138422;-40
2022/02/08 17:51:55;;;;;;;;;;;;;;;8.59;100.00;102383.63;2568359;30;137045;-41
2022/02/08 17:54:23;;;;;;;;;;;;;;;8.56;100.00;102379.38;2568621;30;138710;-40
2022/02/08 17:56:51;;;;;;;;;;;;;;;8.54;100.00;102392.28;2567809;30;137148;-40
2022/02/08 17:59:22;;;;;;;;;;;;;;;8.57;100.00;102393.84;2567129;30;139519;-40
2022/02/08 18:01:51;;;;;;;;;;;;;;;8.58;100.00;102399.09;2567521;30;136959;-40
2022/02/08 18:04:19;;;;;;;;;;;;;;;8.54;100.00;102392.28;2568180;30;138098;-40
2022/02/08 18:06:47;;;;;;;;;;;;;;;8.55;100.00;102388.53;2565809;30;137123;-40
2022/02/08 18:09:18;;;;;;;;;;;;;;;8.49;100.00;102387.34;2568896;30;138329;-40
2022/02/08 18:11:46;;;;;;;;;;;;;;;8.55;100.00;102387.69;2567569;30;137359;-40
2022/02/08 18:14:18;;;;;;;;;;;;;;;8.51;100.00;102395.31;2568406;30;138462;-40
2022/02/08 18:16:52;;;;;;;;;;;;;;;8.51;100.00;102391.75;2567470;30;137008;-40
2022/02/08 18:19:28;;;;;;;;;;;;;;;8.48;100.00;102399.16;2569264;30;138260;-40
2022/02/08 18:22:12;;;;;;;;;;;;;;;8.51;100.00;102405.38;2567846;30;137206;-40
2022/02/08 18:25:02;;;;;;;;;;;;;;;8.57;100.00;102402.84;2569287;30;139011;-40
2022/02/08 19:21:46;;;;;;;;;;;;;;;8.53;100.00;102374.25;2568374;30;137130;-40
2022/02/08 19:24:19;;;;;;;;;;;;;;;8.53;100.00;102370.69;2567114;30;138537;-40
2022/02/08 19:26:47;;;;;;;;;;;;;;;8.52;100.00;102366.25;2569314;30;137427;-40
2022/02/08 19:29:17;;;;;;;;;;;;;;;8.47;100.00;102363.97;2568902;30;138973;-40
2022/02/08 19:31:46;;;;;;;;;;;;;;;8.44;100.00;102370.59;2567221;30;137777;-40
2022/02/08 19:34:14;;;;;;;;;;;;;;;8.46;100.00;102367.72;2567248;30;137272;-40
2022/02/08 19:39:02;;;;;;;;;;;;;;;8.49;100.00;102384.63;2568190;30;137194;-38
2022/02/08 19:41:31;;;;;;;;;;;;;;;8.49;100.00;102383.72;2566434;30;138605;-38
2022/02/08 19:44:00;;;;;;;;;;;;;;;8.47;100.00;102381.13;2565948;30;137595;-38
2022/02/08 19:46:28;;;;;;;;;;;;;;;8.50;100.00;102382.72;2568837;30;138341;-38
2022/02/08 19:48:56;;;;;;;;;;;;;;;8.49;100.00;102384.63;2567828;30;137088;-38
2022/02/08 19:51:23;;;;;;;;;;;;;;;8.52;100.00;102393.47;2568889;30;139399;-38
2022/02/08 19:53:52;;;;;;;;;;;;;;;8.49;100.00;102395.50;2568557;30;137868;-38
2022/02/08 19:56:27;;;;;;;;;;;;;;;8.48;100.00;102388.28;2569292;30;139141;-38
2022/02/08 19:58:57;;;;;;;;;;;;;;;8.46;100.00;102389.47;2568532;30;137149;-38
2022/02/08 20:04:18;;;;;;;;;;;;;;;8.49;100.00;102403.66;2567702;30;138758;-38
2022/02/08 20:06:46;;;;;;;;;;;;;;;8.49;100.00;102409.09;2566787;30;138847;-38
2022/02/08 20:09:14;;;;;;;;;;;;;;;8.48;100.00;102409.22;2567801;30;137107;-38
2022/02/08 20:11:43;;;;;;;;;;;;;;;8.47;100.00;102404.78;2567662;30;137743;-38
2022/02/08 20:14:12;;;;;;;;;;;;;;;8.47;100.00;102415.66;2568908;30;137194;-38
2022/02/08 20:16:40;;;;;;;;;;;;;;;8.43;100.00;102409.69;2569696;30;138516;-38
2022/02/08 20:19:09;;;;;;;;;;;;;;;8.45;100.00;102410.38;2568808;30;138060;-38
2022/02/08 20:21:38;;;;;;;;;;;;;;;8.44;100.00;102405.94;2566836;30;137367;-38
2022/02/08 20:24:08;;;;;;;;;;;;;;;8.43;100.00;102398.81;2568795;30;136833;-38
2022/02/08 20:29:24;;;;;;;;;;;;;;;8.37;100.00;102399.44;2569384;30;137165;-38
2022/02/08 20:31:53;;;;;;;;;;;;;;;8.36;100.00;102395.03;2567045;30;138151;-38
2022/02/08 20:34:22;;;;;;;;;;;;;;;8.34;100.00;102397.03;2568992;30;136928;-38
2022/02/08 20:36:50;;;;;;;;;;;;;;;8.33;100.00;102400.78;2568205;30;137937;-38
2022/02/08 20:39:18;;;;;;;;;;;;;;;8.32;100.00;102396.34;2569824;30;137005;-38